Time;durP1;ratioP1;P1;durP2;ratioP2;P2;SDS_P1;SDS_P2;PMS_P1;PMS_P2;Temp;Humidity;BMP_temperature;BMP_pressure;BME280_temperature;BME280_humidity;BME280_pressure;Samples;Min_cycle;Max_cycle;Signal;HPM_P1;HPM_P2
2021/06/11 00:01:54;;;;;;;;;;;;;;;26.61;44.46;100504.56;4998236;28;828;-36
2021/06/11 00:04:19;;;;;;;;;;;;;;;26.65;44.55;100505.91;4997903;28;820;-35
2021/06/11 00:06:45;;;;;;;;;;;;;;;26.67;44.37;100504.88;4980627;28;1902;-35
2021/06/11 00:09:13;;;;;;;;;;;;;;;26.60;44.73;100497.53;4998619;28;769;-41
2021/06/11 00:11:39;;;;;;;;;;;;;;;26.63;44.63;100501.69;4998336;28;805;-37
2021/06/11 00:14:04;;;;;;;;;;;;;;;26.56;44.73;100498.91;4997129;28;1065;-34
2021/06/11 00:16:29;;;;;;;;;;;;;;;26.64;44.71;100488.00;4998130;28;765;-34
2021/06/11 00:18:55;;;;;;;;;;;;;;;26.64;44.74;100485.31;4998336;28;832;-40
2021/06/11 00:21:20;;;;;;;;;;;;;;;26.64;44.56;100487.19;4997633;28;831;-35
2021/06/11 00:23:45;;;;;;;;;;;;;;;26.63;44.61;100480.94;4997557;28;792;-41
2021/06/11 00:26:10;;;;;;;;;;;;;;;26.61;44.57;100479.47;4998101;28;1906;-42
2021/06/11 00:28:36;;;;;;;;;;;;;;;26.56;44.94;100479.19;4997561;28;753;-35
2021/06/11 00:31:01;;;;;;;;;;;;;;;26.68;44.54;100479.53;4997801;28;965;-39
2021/06/11 00:33:26;;;;;;;;;;;;;;;26.57;44.71;100468.22;4997876;28;878;-37
2021/06/11 00:35:52;;;;;;;;;;;;;;;26.60;44.54;100477.78;4997338;28;680;-31
2021/06/11 00:38:18;;;;;;;;;;;;;;;26.70;44.36;100469.41;4997761;28;791;-40
2021/06/11 00:40:44;;;;;;;;;;;;;;;26.63;44.49;100474.72;5030622;28;1074;-42
2021/06/11 00:43:12;;;;;;;;;;;;;;;26.66;44.37;100479.72;5036605;28;834;-41
2021/06/11 00:45:38;;;;;;;;;;;;;;;26.64;44.59;100482.63;5021968;28;1955;-36
2021/06/11 00:48:03;;;;;;;;;;;;;;;26.67;44.49;100485.97;5017479;28;747;-37
2021/06/11 00:50:29;;;;;;;;;;;;;;;26.60;44.58;100475.09;4999711;28;1344;-41
2021/06/11 00:52:55;;;;;;;;;;;;;;;26.71;44.25;100476.50;5017174;28;796;-40
2021/06/11 00:55:20;;;;;;;;;;;;;;;26.62;44.57;100470.34;5016668;28;804;-31
2021/06/11 00:57:46;;;;;;;;;;;;;;;26.65;44.31;100473.53;5016666;28;749;-42
2021/06/11 01:00:11;;;;;;;;;;;;;;;26.64;44.73;100471.81;5005680;28;957;-41
2021/06/11 01:02:37;;;;;;;;;;;;;;;26.67;44.34;100470.63;4997795;28;709;-41
2021/06/11 01:05:02;;;;;;;;;;;;;;;26.62;44.48;100465.81;4996919;28;1902;-38
2021/06/11 01:07:27;;;;;;;;;;;;;;;26.60;44.60;100464.31;4996834;28;828;-34
2021/06/11 01:09:53;;;;;;;;;;;;;;;26.66;44.49;100468.94;4979554;28;840;-33
2021/06/11 01:12:18;;;;;;;;;;;;;;;26.69;44.40;100465.06;4979351;28;785;-39
2021/06/11 01:14:43;;;;;;;;;;;;;;;26.65;44.66;100465.44;4978815;28;1148;-34
2021/06/11 01:17:09;;;;;;;;;;;;;;;26.63;44.37;100459.38;4996897;28;735;-32
2021/06/11 01:19:38;;;;;;;;;;;;;;;26.58;44.62;100450.16;4996304;28;812;-40
2021/06/11 01:22:27;;;;;;;;;;;;;;;26.67;44.59;100461.69;4997754;28;757;-34
2021/06/11 01:24:52;;;;;;;;;;;;;;;26.57;44.48;100462.81;4968872;28;1965;-38
2021/06/11 01:27:17;;;;;;;;;;;;;;;26.58;44.50;100466.34;4996227;28;848;-32
2021/06/11 01:29:47;;;;;;;;;;;;;;;26.59;44.50;100460.75;4979331;28;1020;-33
2021/06/11 01:32:12;;;;;;;;;;;;;;;26.59;44.35;100460.75;4980156;28;848;-33
2021/06/11 01:34:37;;;;;;;;;;;;;;;26.61;44.31;100461.41;4979624;28;811;-39
2021/06/11 01:37:09;;;;;;;;;;;;;;;26.52;44.50;100452.59;4996475;28;816;-34
2021/06/11 01:39:35;;;;;;;;;;;;;;;26.63;44.18;100458.53;4993443;28;955;-37
2021/06/11 01:42:00;;;;;;;;;;;;;;;26.57;44.61;100462.81;5035573;28;839;-33
2021/06/11 01:44:25;;;;;;;;;;;;;;;26.59;44.45;100463.44;5014013;28;945;-35
2021/06/11 01:46:51;;;;;;;;;;;;;;;26.56;44.47;100458.44;5016042;28;1902;-42
2021/06/11 01:49:16;;;;;;;;;;;;;;;26.51;44.79;100456.31;4998052;28;757;-36
2021/06/11 01:51:41;;;;;;;;;;;;;;;26.60;44.32;100464.31;4999091;28;846;-42
2021/06/11 01:54:07;;;;;;;;;;;;;;;26.54;44.70;100457.81;4998370;28;1282;-42
2021/06/11 01:56:32;;;;;;;;;;;;;;;26.62;44.58;100462.25;4998506;28;792;-35
2021/06/11 01:58:58;;;;;;;;;;;;;;;26.67;44.05;100465.25;5014924;28;996;-33
2021/06/11 02:01:23;;;;;;;;;;;;;;;26.66;44.10;100452.75;4996787;28;810;-33
2021/06/11 02:03:49;;;;;;;;;;;;;;;26.67;44.34;100450.91;4996574;28;788;-36
2021/06/11 02:06:15;;;;;;;;;;;;;;;26.69;44.06;100446.16;4996524;28;1964;-41
2021/06/11 02:08:40;;;;;;;;;;;;;;;26.69;44.04;100454.25;4996408;28;720;-31
2021/06/11 02:11:05;;;;;;;;;;;;;;;26.67;43.97;100450.91;4978559;28;1404;-34
2021/06/11 02:13:31;;;;;;;;;;;;;;;26.61;44.15;100455.19;4981121;28;1205;-39
2021/06/11 02:15:56;;;;;;;;;;;;;;;26.65;44.48;100453.78;5017104;28;1154;-41
2021/06/11 02:18:22;;;;;;;;;;;;;;;26.65;44.25;100454.63;5002011;28;855;-37
2021/06/11 02:20:47;;;;;;;;;;;;;;;26.72;44.15;100453.88;5019171;28;773;-32
2021/06/11 02:23:12;;;;;;;;;;;;;;;26.74;44.04;100454.53;5019952;28;749;-41
2021/06/11 02:25:38;;;;;;;;;;;;;;;26.60;44.52;100456.22;5019693;28;1979;-31
2021/06/11 02:28:03;;;;;;;;;;;;;;;26.50;44.70;100457.34;5019977;28;795;-33
2021/06/11 02:30:28;;;;;;;;;;;;;;;26.48;44.59;100453.97;4988432;28;1016;-39
2021/06/11 02:32:54;;;;;;;;;;;;;;;26.45;44.75;100457.06;4999797;28;713;-36
2021/06/11 02:35:24;;;;;;;;;;;;;;;26.46;43.75;100455.19;5000136;28;896;-33
2021/06/11 02:37:49;;;;;;;;;;;;;;;26.33;41.59;100470.16;5000216;28;827;-34
2021/06/11 02:40:14;;;;;;;;;;;;;;;26.13;41.92;100467.97;5023915;28;1081;-37
2021/06/11 02:42:40;;;;;;;;;;;;;;;25.98;41.89;100454.44;5039688;28;799;-38
2021/06/11 02:45:07;;;;;;;;;;;;;;;25.73;41.95;100459.19;5028690;28;1963;-34
2021/06/11 02:47:51;;;;;;;;;;;;;;;25.79;41.88;100474.66;5001584;28;816;-36
2021/06/11 02:50:16;;;;;;;;;;;;;;;25.69;41.89;100466.84;5018961;28;860;-45
2021/06/11 02:52:50;;;;;;;;;;;;;;;25.71;41.84;100472.03;5019499;28;737;-35
2021/06/11 02:55:15;;;;;;;;;;;;;;;25.78;41.50;100479.22;5018631;28;944;-36
2021/06/11 02:57:59;;;;;;;;;;;;;;;25.76;41.89;100477.69;5001629;28;974;-44
2021/06/11 03:00:25;;;;;;;;;;;;;;;25.50;42.30;100479.72;5011841;28;953;-39
2021/06/11 03:02:50;;;;;;;;;;;;;;;25.55;42.35;100474.63;5000330;28;801;-32
2021/06/11 03:05:16;;;;;;;;;;;;;;;25.42;42.53;100469.81;5001349;28;1898;-45
2021/06/11 03:07:41;;;;;;;;;;;;;;;25.46;42.34;100474.88;5001689;28;867;-42
2021/06/11 03:10:07;;;;;;;;;;;;;;;25.49;42.43;100482.59;5001198;28;776;-44
2021/06/11 03:12:32;;;;;;;;;;;;;;;25.44;42.50;100483.13;5000794;28;1541;-42
2021/06/11 03:14:58;;;;;;;;;;;;;;;25.43;42.67;100484.13;5018676;28;1085;-34
2021/06/11 03:17:24;;;;;;;;;;;;;;;25.38;42.84;100478.44;5018699;28;835;-35
2021/06/11 03:19:50;;;;;;;;;;;;;;;25.48;42.68;100479.06;5001435;28;764;-41
2021/06/11 03:22:18;;;;;;;;;;;;;;;25.32;42.64;100474.63;5018264;28;729;-42
2021/06/11 03:24:46;;;;;;;;;;;;;;;25.17;43.15;100477.22;5017758;28;1906;-32
2021/06/11 03:27:11;;;;;;;;;;;;;;;25.17;43.19;100479.91;5000852;28;845;-35
2021/06/11 03:29:39;;;;;;;;;;;;;;;25.29;43.00;100480.38;5018724;28;1016;-45
2021/06/11 03:32:05;;;;;;;;;;;;;;;25.17;43.39;100480.75;5017840;28;819;-35
2021/06/11 03:34:31;;;;;;;;;;;;;;;25.21;43.42;100478.53;5018661;28;745;-35
2021/06/11 03:36:57;;;;;;;;;;;;;;;25.26;43.53;100480.69;5000973;28;832;-33
2021/06/11 03:39:26;;;;;;;;;;;;;;;25.31;43.39;100476.47;5023649;28;1069;-35
2021/06/11 03:41:52;;;;;;;;;;;;;;;25.33;43.35;100481.66;5038408;28;820;-45
2021/06/11 03:44:17;;;;;;;;;;;;;;;25.22;43.98;100491.00;5016018;28;1027;-37
2021/06/11 03:46:43;;;;;;;;;;;;;;;25.19;43.89;100484.09;5018219;28;1918;-37
2021/06/11 03:49:08;;;;;;;;;;;;;;;25.24;44.13;100488.13;5000608;28;798;-39
2021/06/11 03:51:34;;;;;;;;;;;;;;;25.34;44.15;100494.09;5000468;28;878;-38
2021/06/11 03:53:59;;;;;;;;;;;;;;;25.00;44.64;100495.28;5000267;28;772;-32
2021/06/11 03:56:25;;;;;;;;;;;;;;;24.78;45.63;100498.53;5000815;28;777;-31
2021/06/11 03:58:50;;;;;;;;;;;;;;;24.46;46.43;100498.47;5000799;28;1515;-31
2021/06/11 04:01:24;;;;;;;;;;;;;;;24.76;46.03;100499.72;5017785;28;941;-32
2021/06/11 04:03:50;;;;;;;;;;;;;;;24.34;47.01;100500.66;4999891;28;791;-35
2021/06/11 04:06:31;;;;;;;;;;;;;;;24.84;46.08;100502.38;4997088;28;1894;-30
2021/06/11 04:08:57;;;;;;;;;;;;;;;24.59;46.47;100502.44;4998097;28;743;-31
2021/06/11 04:11:25;;;;;;;;;;;;;;;23.91;47.68;100497.28;4983284;28;1353;-41
2021/06/11 04:14:00;;;;;;;;;;;;;;;23.65;48.42;100503.66;4981165;28;1091;-33
2021/06/11 04:16:28;;;;;;;;;;;;;;;23.57;49.09;100501.81;4996433;28;789;-30
2021/06/11 04:18:54;;;;;;;;;;;;;;;23.39;49.75;100507.28;4981126;28;777;-43
2021/06/11 04:21:22;;;;;;;;;;;;;;;22.86;51.49;100510.91;4980126;28;980;-38
2021/06/11 04:23:49;;;;;;;;;;;;;;;22.79;52.43;100513.38;4980812;28;764;-46
2021/06/11 04:26:14;;;;;;;;;;;;;;;23.03;52.09;100525.25;4997779;28;1906;-38
2021/06/11 04:28:40;;;;;;;;;;;;;;;22.83;52.42;100520.13;4998336;28;777;-36
2021/06/11 04:31:05;;;;;;;;;;;;;;;22.82;52.65;100520.28;4980191;28;961;-32
2021/06/11 04:33:30;;;;;;;;;;;;;;;23.06;52.27;100516.88;4997967;28;853;-32
2021/06/11 04:35:56;;;;;;;;;;;;;;;23.93;49.79;100519.47;4996655;28;775;-30
2021/06/11 04:38:21;;;;;;;;;;;;;;;24.60;48.25;100530.19;4997107;28;846;-30
2021/06/11 04:40:47;;;;;;;;;;;;;;;24.93;47.11;100525.59;5013721;28;1257;-34
2021/06/11 04:43:12;;;;;;;;;;;;;;;24.98;47.12;100522.38;5037379;28;788;-33
2021/06/11 04:45:37;;;;;;;;;;;;;;;25.16;46.60;100532.06;5021992;28;1899;-33
2021/06/11 04:48:03;;;;;;;;;;;;;;;25.21;46.14;100518.09;5016696;28;926;-40
2021/06/11 04:50:28;;;;;;;;;;;;;;;25.27;45.89;100525.47;5016482;28;827;-32
2021/06/11 04:52:54;;;;;;;;;;;;;;;25.34;45.59;100531.81;5016879;28;824;-34
2021/06/11 04:55:19;;;;;;;;;;;;;;;25.37;45.69;100536.00;5017024;28;803;-38
2021/06/11 04:57:45;;;;;;;;;;;;;;;25.34;45.70;100530.97;5016593;28;799;-33
2021/06/11 05:00:10;;;;;;;;;;;;;;;25.42;45.34;100530.94;5005507;28;1305;-32
2021/06/11 05:02:35;;;;;;;;;;;;;;;25.60;44.83;100538.75;5005445;28;819;-32
2021/06/11 05:05:01;;;;;;;;;;;;;;;25.49;45.12;100537.28;5031859;28;1914;-35
2021/06/11 05:07:26;;;;;;;;;;;;;;;25.54;45.14;100542.16;5035988;28;831;-32
2021/06/11 05:09:52;;;;;;;;;;;;;;;25.74;44.95;100536.34;5036463;28;752;-34
2021/06/11 05:12:17;;;;;;;;;;;;;;;25.76;44.45;100545.06;5036378;28;763;-34
2021/06/11 05:14:42;;;;;;;;;;;;;;;25.69;44.42;100542.25;5029311;28;1053;-31
2021/06/11 05:17:08;;;;;;;;;;;;;;;25.78;44.33;100546.56;5016233;28;783;-32
2021/06/11 05:19:33;;;;;;;;;;;;;;;25.99;43.66;100549.63;5016512;28;820;-38
2021/06/11 05:21:58;;;;;;;;;;;;;;;25.97;43.77;100548.97;5016981;28;757;-33
2021/06/11 05:24:24;;;;;;;;;;;;;;;26.10;43.71;100553.75;5016092;28;1463;-40
2021/06/11 05:26:49;;;;;;;;;;;;;;;26.06;43.42;100561.34;4999036;28;1972;-35
2021/06/11 05:29:14;;;;;;;;;;;;;;;26.05;43.33;100565.06;5013345;28;980;-34
2021/06/11 05:31:40;;;;;;;;;;;;;;;26.26;43.36;100563.53;4996606;28;856;-32
2021/06/11 05:34:05;;;;;;;;;;;;;;;26.19;43.52;100563.47;4996819;28;826;-33
2021/06/11 05:36:30;;;;;;;;;;;;;;;26.09;43.63;100560.97;4997059;28;900;-36
2021/06/11 05:38:55;;;;;;;;;;;;;;;26.29;43.81;100563.22;4999644;28;1225;-36
2021/06/11 05:41:21;;;;;;;;;;;;;;;26.56;42.91;100562.81;5036498;28;871;-35
2021/06/11 05:43:46;;;;;;;;;;;;;;;26.61;42.60;100568.50;5036282;28;803;-36
2021/06/11 05:46:12;;;;;;;;;;;;;;;26.66;41.77;100571.47;5016473;28;1898;-36
2021/06/11 05:48:40;;;;;;;;;;;;;;;26.64;41.94;100566.25;5016183;28;821;-31
2021/06/11 05:51:05;;;;;;;;;;;;;;;26.77;41.77;100573.75;5016420;28;806;-35
2021/06/11 05:53:30;;;;;;;;;;;;;;;26.79;41.96;100570.84;5015636;28;841;-35
2021/06/11 05:55:56;;;;;;;;;;;;;;;26.89;41.90;100566.00;5016396;28;829;-35
2021/06/11 05:58:21;;;;;;;;;;;;;;;26.97;41.63;100575.88;5016412;28;768;-36
2021/06/11 06:00:46;;;;;;;;;;;;;;;27.03;41.77;100579.72;5000317;28;953;-37
2021/06/11 06:03:12;;;;;;;;;;;;;;;27.07;41.77;100585.56;4996502;28;749;-42
2021/06/11 06:05:37;;;;;;;;;;;;;;;27.09;41.74;100586.22;4996423;28;1906;-35
2021/06/11 06:08:02;;;;;;;;;;;;;;;27.09;41.79;100580.84;4996460;28;788;-34
2021/06/11 06:10:27;;;;;;;;;;;;;;;26.99;42.00;100575.69;4996244;28;757;-34
2021/06/11 06:12:53;;;;;;;;;;;;;;;27.03;41.80;100579.72;4979052;28;1098;-35
2021/06/11 06:15:18;;;;;;;;;;;;;;;27.09;41.83;100581.66;4995717;28;1102;-35
2021/06/11 06:17:43;;;;;;;;;;;;;;;27.09;41.96;100578.94;4996647;28;846;-34
2021/06/11 06:20:09;;;;;;;;;;;;;;;27.17;41.70;100583.44;4996271;28;811;-34
2021/06/11 06:22:34;;;;;;;;;;;;;;;26.56;42.44;100577.13;4995879;28;747;-37
2021/06/11 06:25:00;;;;;;;;;;;;;;;26.90;42.13;100575.78;4996439;28;1907;-33
2021/06/11 06:27:25;;;;;;;;;;;;;;;26.95;42.24;100585.16;4996814;28;724;-41
2021/06/11 06:29:50;;;;;;;;;;;;;;;26.87;42.37;100584.25;4995781;28;968;-42
2021/06/11 06:32:15;;;;;;;;;;;;;;;26.81;42.51;100581.47;4996002;28;771;-42
2021/06/11 06:34:41;;;;;;;;;;;;;;;26.99;42.18;100583.78;4996447;28;819;-31
2021/06/11 06:37:11;;;;;;;;;;;;;;;27.04;42.14;100592.19;4996162;28;776;-38
2021/06/11 06:39:37;;;;;;;;;;;;;;;27.07;41.99;100581.03;5011117;28;1121;-33
2021/06/11 06:42:02;;;;;;;;;;;;;;;27.13;42.32;100587.53;5035112;28;784;-31
2021/06/11 06:44:28;;;;;;;;;;;;;;;27.26;42.18;100585.00;5030066;28;1015;-29
2021/06/11 06:46:53;;;;;;;;;;;;;;;27.26;41.82;100581.44;5015870;28;1968;-32
2021/06/11 06:49:18;;;;;;;;;;;;;;;27.28;41.27;100579.41;4998347;28;812;-30
2021/06/11 06:51:43;;;;;;;;;;;;;;;27.29;41.58;100574.84;5015136;28;832;-33
2021/06/11 06:54:09;;;;;;;;;;;;;;;27.29;41.47;100581.09;5015436;28;814;-34
2021/06/11 06:56:34;;;;;;;;;;;;;;;27.10;41.85;100577.94;5015758;28;783;-37
2021/06/11 06:58:59;;;;;;;;;;;;;;;27.15;41.88;100574.69;5015894;28;1004;-32
2021/06/11 07:01:25;;;;;;;;;;;;;;;27.24;41.65;100581.63;4999853;28;740;-44
2021/06/11 07:03:57;;;;;;;;;;;;;;;27.29;41.52;100583.81;4999156;28;848;-35
2021/06/11 07:06:25;;;;;;;;;;;;;;;27.36;41.44;100579.31;4999640;28;1965;-35
2021/06/11 07:08:50;;;;;;;;;;;;;;;27.33;41.51;100582.38;4999480;28;725;-36
2021/06/11 07:11:15;;;;;;;;;;;;;;;27.32;40.87;100585.28;4999634;28;938;-34
2021/06/11 07:13:41;;;;;;;;;;;;;;;27.21;40.47;100578.50;4998684;28;1242;-32
2021/06/11 07:16:06;;;;;;;;;;;;;;;27.17;40.12;100578.03;5006133;28;969;-43
2021/06/11 07:18:31;;;;;;;;;;;;;;;27.34;40.44;100578.66;5038923;28;799;-35
2021/06/11 07:20:57;;;;;;;;;;;;;;;27.27;40.57;100583.16;5038473;28;876;-36
2021/06/11 07:23:22;;;;;;;;;;;;;;;27.43;40.50;100582.09;5037585;28;816;-36
2021/06/11 07:25:47;;;;;;;;;;;;;;;27.29;40.98;100583.81;5038107;28;1988;-42
2021/06/11 07:28:12;;;;;;;;;;;;;;;27.32;40.91;100582.56;5038374;28;757;-33
2021/06/11 07:30:38;;;;;;;;;;;;;;;27.42;40.90;100576.88;5023625;28;951;-36
2021/06/11 07:33:03;;;;;;;;;;;;;;;27.49;40.42;100575.91;5018828;28;792;-37
2021/06/11 07:35:28;;;;;;;;;;;;;;;27.63;39.70;100568.81;5017719;28;857;-37
2021/06/11 07:37:54;;;;;;;;;;;;;;;27.48;40.25;100576.09;5017876;28;835;-36
2021/06/11 07:40:19;;;;;;;;;;;;;;;27.60;40.11;100580.00;5031384;28;1128;-37
2021/06/11 07:42:44;;;;;;;;;;;;;;;27.64;39.20;100580.47;5038084;28;768;-43
2021/06/11 07:45:10;;;;;;;;;;;;;;;27.67;39.06;100580.09;5026872;28;1910;-45
2021/06/11 07:47:35;;;;;;;;;;;;;;;27.49;39.49;100575.91;5018529;28;804;-36
2021/06/11 07:50:01;;;;;;;;;;;;;;;27.58;39.96;100581.22;5018247;28;796;-46
2021/06/11 07:52:26;;;;;;;;;;;;;;;27.55;39.92;100568.09;5018141;28;729;-36
2021/06/11 07:54:51;;;;;;;;;;;;;;;27.85;39.13;100573.44;5017735;28;939;-46
2021/06/11 07:57:16;;;;;;;;;;;;;;;27.81;39.06;100569.44;5018057;28;851;-46
2021/06/11 07:59:42;;;;;;;;;;;;;;;27.84;39.49;100574.47;5011076;28;1000;-36
2021/06/11 08:02:07;;;;;;;;;;;;;;;27.86;38.64;100569.72;4998774;28;850;-38
2021/06/11 08:04:33;;;;;;;;;;;;;;;27.80;38.46;100571.31;4998401;28;760;-39
2021/06/11 08:06:58;;;;;;;;;;;;;;;27.86;38.59;100573.22;4997769;28;1903;-38
2021/06/11 08:09:25;;;;;;;;;;;;;;;27.97;38.88;100571.91;4985166;28;1359;-47
2021/06/11 08:11:50;;;;;;;;;;;;;;;27.95;38.74;100568.53;5017766;28;889;-38
2021/06/11 08:14:15;;;;;;;;;;;;;;;27.86;38.93;100572.41;5013768;28;1081;-41
2021/06/11 08:16:41;;;;;;;;;;;;;;;28.01;38.36;100569.63;4997482;28;799;-36
2021/06/11 08:19:06;;;;;;;;;;;;;;;28.19;38.15;100563.78;4998472;28;828;-44
2021/06/11 08:21:31;;;;;;;;;;;;;;;28.13;38.63;100569.13;4997883;28;761;-37
2021/06/11 08:23:57;;;;;;;;;;;;;;;27.97;38.87;100569.19;4998326;28;815;-40
2021/06/11 08:26:22;;;;;;;;;;;;;;;28.14;38.31;100565.38;4997609;28;1898;-37
2021/06/11 08:28:47;;;;;;;;;;;;;;;28.38;37.96;100564.16;4998297;28;736;-46
2021/06/11 08:31:12;;;;;;;;;;;;;;;28.42;37.95;100561.88;4997168;28;1000;-38
2021/06/11 08:33:38;;;;;;;;;;;;;;;28.41;37.38;100558.34;4997839;28;777;-37
2021/06/11 08:36:03;;;;;;;;;;;;;;;28.44;37.21;100555.25;4997865;28;740;-45
2021/06/11 08:38:29;;;;;;;;;;;;;;;28.35;38.00;100559.13;4997176;28;801;-34
2021/06/11 08:40:54;;;;;;;;;;;;;;;28.56;37.76;100574.47;5015161;28;1130;-33
2021/06/11 08:43:19;;;;;;;;;;;;;;;28.55;37.46;100563.84;5019737;28;835;-38
2021/06/11 08:45:45;;;;;;;;;;;;;;;28.52;37.73;100562.38;5021314;28;1971;-37
2021/06/11 08:48:10;;;;;;;;;;;;;;;28.53;36.32;100555.13;5016976;28;820;-35
2021/06/11 08:50:36;;;;;;;;;;;;;;;28.60;37.05;100562.22;5017888;28;759;-38
2021/06/11 08:53:01;;;;;;;;;;;;;;;28.55;37.33;100561.13;5016634;28;844;-43
2021/06/11 08:55:27;;;;;;;;;;;;;;;28.44;37.25;100568.78;5017253;28;764;-40
2021/06/11 08:57:52;;;;;;;;;;;;;;;28.52;36.89;100559.69;5016090;28;844;-38
2021/06/11 09:00:20;;;;;;;;;;;;;;;28.60;36.26;100562.22;5005088;28;1008;-41
2021/06/11 09:03:12;;;;;;;;;;;;;;;28.63;36.79;100568.28;4997189;28;867;-37
2021/06/11 09:05:41;;;;;;;;;;;;;;;28.38;37.60;100555.22;5009284;28;1897;-37
2021/06/11 09:08:19;;;;;;;;;;;;;;;28.52;35.93;100558.84;5016405;28;744;-37
2021/06/11 09:10:46;;;;;;;;;;;;;;;28.58;34.92;100558.88;5017130;28;728;-42
2021/06/11 09:13:20;;;;;;;;;;;;;;;28.47;35.15;100559.44;5016920;28;752;-37
2021/06/11 09:15:45;;;;;;;;;;;;;;;28.48;36.25;100556.53;5001046;28;1019;-37
2021/06/11 09:18:21;;;;;;;;;;;;;;;28.40;36.52;100545.84;4979175;28;837;-31
2021/06/11 09:20:47;;;;;;;;;;;;;;;28.54;36.30;100551.38;4996513;28;848;-36
2021/06/11 09:23:12;;;;;;;;;;;;;;;28.31;35.97;100555.13;4996782;28;769;-35
2021/06/11 09:25:40;;;;;;;;;;;;;;;28.23;35.22;100550.69;4997430;28;1979;-32
2021/06/11 09:28:10;;;;;;;;;;;;;;;28.35;35.82;100556.44;4997140;28;812;-41
2021/06/11 09:30:38;;;;;;;;;;;;;;;28.39;35.64;100549.59;5002613;28;1155;-39
2021/06/11 09:33:07;;;;;;;;;;;;;;;28.43;35.65;100552.72;5014219;28;1240;-42
2021/06/11 09:35:37;;;;;;;;;;;;;;;28.38;36.10;100545.22;5016456;28;780;-34
2021/06/11 09:38:21;;;;;;;;;;;;;;;28.41;36.15;100549.41;5016636;28;792;-35
2021/06/11 09:40:59;;;;;;;;;;;;;;;28.35;36.36;100551.88;5016077;28;1188;-45
2021/06/11 09:43:24;;;;;;;;;;;;;;;28.58;35.92;100542.66;5016120;28;822;-43
2021/06/11 09:45:59;;;;;;;;;;;;;;;28.75;35.51;100546.91;4999193;28;1965;-33
2021/06/11 09:48:27;;;;;;;;;;;;;;;28.93;35.22;100546.38;4996482;28;748;-34
2021/06/11 09:50:52;;;;;;;;;;;;;;;28.58;35.89;100539.09;4996394;28;755;-34
2021/06/11 09:53:18;;;;;;;;;;;;;;;28.43;36.33;100539.19;4996732;28;828;-32
2021/06/11 09:55:45;;;;;;;;;;;;;;;28.68;35.93;100544.16;4996577;28;800;-35
2021/06/11 09:58:11;;;;;;;;;;;;;;;28.54;35.76;100524.31;4996586;28;776;-37
2021/06/11 10:00:40;;;;;;;;;;;;;;;28.64;35.95;100523.94;4996130;28;977;-37
2021/06/11 10:03:10;;;;;;;;;;;;;;;28.86;35.08;100522.00;4996642;28;740;-39
2021/06/11 10:05:35;;;;;;;;;;;;;;;28.47;36.49;100519.69;4997355;28;1961;-31
2021/06/11 10:08:00;;;;;;;;;;;;;;;28.54;35.90;100518.91;4978684;28;850;-34
2021/06/11 10:10:25;;;;;;;;;;;;;;;28.66;35.87;100517.28;4979278;28;769;-34
2021/06/11 10:12:51;;;;;;;;;;;;;;;28.70;35.71;100515.03;4996005;28;891;-34
2021/06/11 10:15:16;;;;;;;;;;;;;;;28.68;35.97;100511.66;4995568;28;1279;-42
2021/06/11 10:17:42;;;;;;;;;;;;;;;28.81;35.49;100510.94;4996485;28;748;-33
2021/06/11 10:20:08;;;;;;;;;;;;;;;28.89;35.61;100508.06;4996361;28;997;-32
2021/06/11 10:22:34;;;;;;;;;;;;;;;28.90;35.55;100498.03;4996285;28;766;-35
2021/06/11 10:24:59;;;;;;;;;;;;;;;29.01;35.27;100502.91;4996414;28;1914;-35
2021/06/11 10:27:24;;;;;;;;;;;;;;;28.99;35.55;100494.19;4996287;28;844;-33
2021/06/11 10:29:49;;;;;;;;;;;;;;;28.95;35.59;100498.28;4979312;28;969;-32
2021/06/11 10:32:15;;;;;;;;;;;;;;;28.98;35.70;100497.09;4978659;28;768;-34
2021/06/11 10:34:53;;;;;;;;;;;;;;;29.07;35.38;100490.44;4981869;28;796;-38
2021/06/11 10:37:51;;;;;;;;;;;;;;;28.87;35.58;100485.75;5000058;28;749;-33
2021/06/11 10:40:16;;;;;;;;;;;;;;;28.85;36.06;100480.53;4988676;28;1152;-34
2021/06/11 10:42:42;;;;;;;;;;;;;;;29.03;35.74;100476.47;5038693;28;759;-35
2021/06/11 10:45:07;;;;;;;;;;;;;;;29.09;35.31;100475.66;5028920;28;1969;-34
2021/06/11 10:47:34;;;;;;;;;;;;;;;29.15;35.69;100473.16;5019838;28;721;-33
2021/06/11 10:50:00;;;;;;;;;;;;;;;29.23;34.45;100480.28;5018823;28;855;-38
2021/06/11 10:52:29;;;;;;;;;;;;;;;29.26;34.66;100480.69;5019264;28;827;-38
2021/06/11 10:54:54;;;;;;;;;;;;;;;29.32;34.61;100476.34;5018717;28;881;-38
2021/06/11 10:57:20;;;;;;;;;;;;;;;29.26;34.93;100477.19;5001907;28;749;-41
2021/06/11 10:59:47;;;;;;;;;;;;;;;29.31;34.85;100471.97;5012044;28;968;-40
2021/06/11 11:02:12;;;;;;;;;;;;;;;29.20;35.17;100479.66;4999524;28;852;-38
2021/06/11 11:04:42;;;;;;;;;;;;;;;29.21;35.04;100466.97;4998796;28;915;-40
2021/06/11 11:07:22;;;;;;;;;;;;;;;29.34;34.65;100460.72;4999590;28;1894;-43
2021/06/11 11:10:00;;;;;;;;;;;;;;;29.22;34.76;100465.91;4999464;28;757;-43
2021/06/11 11:12:31;;;;;;;;;;;;;;;29.02;35.27;100461.28;4999342;28;827;-39
2021/06/11 11:15:00;;;;;;;;;;;;;;;28.95;35.45;100457.66;4998401;28;1123;-41
2021/06/11 11:17:26;;;;;;;;;;;;;;;29.22;35.20;100463.19;4999443;28;725;-40
2021/06/11 11:19:55;;;;;;;;;;;;;;;29.09;35.19;100450.47;4998958;28;844;-37
2021/06/11 11:22:23;;;;;;;;;;;;;;;28.96;35.43;100451.22;4999460;28;731;-38
2021/06/11 11:24:49;;;;;;;;;;;;;;;28.91;35.35;100451.81;4998630;28;845;-43
2021/06/11 11:27:14;;;;;;;;;;;;;;;29.04;35.01;100451.09;4999236;28;1979;-36
2021/06/11 11:29:39;;;;;;;;;;;;;;;29.19;34.56;100459.03;4998889;28;977;-37
2021/06/11 11:32:05;;;;;;;;;;;;;;;29.03;34.63;100462.94;4998662;28;669;-38
2021/06/11 11:34:30;;;;;;;;;;;;;;;28.89;35.17;100462.03;4999053;28;792;-38
2021/06/11 11:36:55;;;;;;;;;;;;;;;28.70;35.48;100447.34;4998257;28;864;-39
2021/06/11 11:39:21;;;;;;;;;;;;;;;28.71;36.05;100457.16;5009291;28;1156;-41
2021/06/11 11:41:48;;;;;;;;;;;;;;;28.51;36.44;100457.88;5038544;28;808;-40
2021/06/11 11:44:13;;;;;;;;;;;;;;;28.64;36.31;100450.88;5034821;28;952;-39
2021/06/11 11:46:38;;;;;;;;;;;;;;;28.79;35.95;100450.75;5017767;28;1906;-45
2021/06/11 11:49:04;;;;;;;;;;;;;;;28.78;35.72;100449.09;5000759;28;1264;-39
2021/06/11 11:51:29;;;;;;;;;;;;;;;28.42;36.97;100449.09;5018538;28;787;-37
2021/06/11 11:53:54;;;;;;;;;;;;;;;28.53;36.88;100445.00;5017987;28;879;-36
2021/06/11 11:56:20;;;;;;;;;;;;;;;28.70;36.35;100444.66;5018276;28;787;-39
2021/06/11 11:58:45;;;;;;;;;;;;;;;28.77;36.34;100444.69;5018337;28;883;-40
2021/06/11 12:01:10;;;;;;;;;;;;;;;28.71;36.52;100444.44;4999203;28;953;-35
2021/06/11 12:03:36;;;;;;;;;;;;;;;28.59;37.18;100446.06;4980985;28;852;-35
2021/06/11 12:06:01;;;;;;;;;;;;;;;28.72;37.00;100438.03;4998269;28;1902;-34
2021/06/11 12:08:26;;;;;;;;;;;;;;;28.72;36.70;100429.06;4998121;28;776;-36
2021/06/11 12:10:52;;;;;;;;;;;;;;;28.59;37.30;100435.25;4998397;28;804;-37
2021/06/11 12:13:17;;;;;;;;;;;;;;;28.65;36.94;100441.72;4998044;28;1308;-33
2021/06/11 12:15:43;;;;;;;;;;;;;;;28.62;37.32;100440.25;4998118;28;965;-43
2021/06/11 12:18:08;;;;;;;;;;;;;;;28.61;37.44;100444.00;4997727;28;1422;-35
2021/06/11 12:20:33;;;;;;;;;;;;;;;28.57;37.22;100440.03;4998659;28;799;-35
2021/06/11 12:22:59;;;;;;;;;;;;;;;28.54;37.63;100443.97;4998516;28;800;-44
2021/06/11 12:25:25;;;;;;;;;;;;;;;28.59;37.62;100446.88;4998157;28;1914;-35
2021/06/11 12:27:50;;;;;;;;;;;;;;;28.43;37.82;100445.34;4997598;28;934;-36
2021/06/11 12:30:15;;;;;;;;;;;;;;;28.51;37.50;100444.34;4997414;28;957;-35
2021/06/11 12:32:41;;;;;;;;;;;;;;;28.46;37.49;100428.72;4998234;28;757;-34
2021/06/11 12:35:06;;;;;;;;;;;;;;;28.57;37.42;100429.19;4998013;28;749;-35
2021/06/11 12:37:31;;;;;;;;;;;;;;;28.58;37.34;100428.16;4980103;28;855;-33
2021/06/11 12:39:57;;;;;;;;;;;;;;;28.60;37.52;100432.34;5017428;28;1097;-33
2021/06/11 12:42:26;;;;;;;;;;;;;;;28.56;37.60;100432.94;5037113;28;791;-34
2021/06/11 12:44:52;;;;;;;;;;;;;;;28.50;38.09;100436.44;5029160;28;963;-45
2021/06/11 12:47:17;;;;;;;;;;;;;;;28.59;37.64;100429.84;5017271;28;1973;-43
2021/06/11 12:49:42;;;;;;;;;;;;;;;28.52;38.06;100435.22;5016214;28;855;-36
2021/06/11 12:52:08;;;;;;;;;;;;;;;27.87;39.81;100438.94;5017206;28;786;-39